createdAt,value
2017-07-21T00:00:11.398Z,0
2017-07-21T00:01:12.829Z,0
2017-07-21T00:02:14.255Z,0
2017-07-21T00:03:15.690Z,0
2017-07-21T00:04:17.107Z,0
2017-07-21T00:05:18.541Z,0
2017-07-21T00:06:19.961Z,0
2017-07-21T00:07:22.027Z,0
2017-07-21T00:08:23.458Z,0
2017-07-21T00:09:24.888Z,0
2017-07-21T00:10:26.310Z,0
2017-07-21T00:11:27.733Z,0
2017-07-21T00:12:29.156Z,0
2017-07-21T00:13:30.585Z,0
2017-07-21T00:14:32.115Z,0
2017-07-21T00:15:33.552Z,0
2017-07-21T00:16:34.981Z,0
2017-07-21T00:17:36.415Z,0
2017-07-21T00:18:37.826Z,0
2017-07-21T00:19:39.248Z,0
2017-07-21T00:20:40.679Z,0
2017-07-21T00:21:42.105Z,0
2017-07-21T00:22:43.531Z,0
2017-07-21T00:23:44.951Z,0
2017-07-21T00:24:46.380Z,0
2017-07-21T00:25:47.810Z,0
2017-07-21T00:26:49.233Z,0
2017-07-21T00:27:50.666Z,0
2017-07-21T00:28:52.090Z,0
2017-07-21T00:29:53.512Z,0
2017-07-21T00:30:54.936Z,0
2017-07-21T00:31:56.367Z,0
2017-07-21T00:32:57.794Z,0
2017-07-21T00:33:59.219Z,0
2017-07-21T00:35:00.640Z,0
2017-07-21T00:36:02.069Z,0
2017-07-21T00:37:03.490Z,0
2017-07-21T00:38:04.917Z,0
2017-07-21T00:39:06.909Z,0
2017-07-21T00:40:08.340Z,0
2017-07-21T00:41:09.765Z,0
2017-07-21T00:42:11.196Z,0
2017-07-21T00:43:12.712Z,0
2017-07-21T00:44:14.160Z,0
2017-07-21T00:45:15.586Z,0
2017-07-21T00:46:17.019Z,0
2017-07-21T00:47:18.441Z,0
2017-07-21T00:48:19.878Z,0
2017-07-21T00:49:21.306Z,0
2017-07-21T00:50:22.745Z,0
2017-07-21T00:51:24.158Z,0
2017-07-21T00:52:26.232Z,0
2017-07-21T00:53:27.667Z,0
2017-07-21T00:54:29.087Z,0
2017-07-21T00:55:30.517Z,0
2017-07-21T00:56:31.940Z,0
2017-07-21T00:57:33.367Z,0
2017-07-21T00:58:34.797Z,0
2017-07-21T00:59:36.216Z,0
2017-07-21T01:00:37.634Z,0
2017-07-21T01:01:39.943Z,0
2017-07-21T01:02:41.351Z,0
2017-07-21T01:03:42.783Z,0
2017-07-21T01:04:44.771Z,0
2017-07-21T01:05:46.198Z,0
2017-07-21T01:06:47.616Z,0
2017-07-21T01:07:49.048Z,0
2017-07-21T01:08:50.466Z,0
2017-07-21T01:09:51.894Z,0
2017-07-21T01:10:53.320Z,0
2017-07-21T01:11:54.735Z,0
2017-07-21T01:12:56.162Z,0
2017-07-21T01:13:57.592Z,0
2017-07-21T01:14:59.658Z,0
2017-07-21T01:16:01.822Z,0
2017-07-21T01:17:03.756Z,0
2017-07-21T01:18:05.175Z,0
2017-07-21T01:19:06.602Z,0
2017-07-21T01:20:08.594Z,0
2017-07-21T01:21:10.055Z,0
2017-07-21T01:22:11.475Z,0
2017-07-21T01:23:12.898Z,0
2017-07-21T01:24:14.321Z,0
2017-07-21T01:25:15.750Z,0
2017-07-21T01:26:18.033Z,0
2017-07-21T01:27:19.477Z,0
2017-07-21T01:28:20.897Z,0
2017-07-21T01:29:22.326Z,0
2017-07-21T01:30:23.750Z,0
2017-07-21T01:31:25.181Z,0
2017-07-21T01:32:26.595Z,0
2017-07-21T01:33:28.015Z,0
2017-07-21T01:34:30.314Z,0
2017-07-21T01:35:31.735Z,0
2017-07-21T01:36:33.159Z,0
2017-07-21T01:37:34.584Z,0
2017-07-21T01:38:36.013Z,0
2017-07-21T01:39:37.446Z,0
2017-07-21T01:40:38.874Z,0
2017-07-21T01:41:40.808Z,0
2017-07-21T01:42:42.228Z,0
2017-07-21T01:43:43.646Z,0
2017-07-21T01:44:45.075Z,0
2017-07-21T01:45:46.500Z,0
2017-07-21T01:46:47.926Z,0
2017-07-21T01:47:49.348Z,0
2017-07-21T01:48:50.772Z,0
2017-07-21T01:49:52.203Z,0
2017-07-21T01:50:53.629Z,0
2017-07-21T01:51:55.052Z,0
2017-07-21T01:52:56.476Z,0
2017-07-21T01:53:57.897Z,0
2017-07-21T01:54:59.327Z,0
2017-07-21T01:56:00.748Z,0
2017-07-21T01:57:02.167Z,0
2017-07-21T01:58:03.595Z,0
2017-07-21T01:59:05.016Z,0
2017-07-21T02:00:06.440Z,0
2017-07-21T02:01:07.863Z,0
2017-07-21T02:02:09.306Z,0
2017-07-21T02:03:10.708Z,0
2017-07-21T02:04:12.130Z,0
2017-07-21T02:05:13.556Z,0
2017-07-21T02:06:14.976Z,0
2017-07-21T02:07:16.395Z,0
2017-07-21T02:08:17.823Z,0
2017-07-21T02:09:19.276Z,0
2017-07-21T02:10:20.697Z,0
2017-07-21T02:11:22.116Z,0
2017-07-21T02:12:23.542Z,0
2017-07-21T02:13:24.963Z,0
2017-07-21T02:14:26.397Z,0
2017-07-21T02:15:27.820Z,0
2017-07-21T02:16:29.247Z,0
2017-07-21T02:17:30.679Z,0
2017-07-21T02:18:32.098Z,0
2017-07-21T02:19:33.526Z,0
2017-07-21T02:20:34.955Z,0
2017-07-21T02:21:36.380Z,0
2017-07-21T02:22:37.796Z,0
2017-07-21T02:23:39.222Z,0
2017-07-21T02:24:41.254Z,0
2017-07-21T02:25:42.678Z,0
2017-07-21T02:26:44.093Z,0
2017-07-21T02:27:45.525Z,0
2017-07-21T02:28:46.953Z,0
2017-07-21T02:29:48.376Z,0
2017-07-21T02:30:49.797Z,0
2017-07-21T02:31:51.218Z,0
2017-07-21T02:32:52.647Z,0
2017-07-21T02:33:54.080Z,0
2017-07-21T02:34:55.506Z,0
2017-07-21T02:35:56.939Z,0
2017-07-21T02:36:58.362Z,0
2017-07-21T02:37:59.774Z,0
2017-07-21T02:39:01.201Z,0
2017-07-21T02:40:02.621Z,0
2017-07-21T02:41:04.043Z,0
2017-07-21T02:42:05.465Z,0
2017-07-21T02:43:06.914Z,0
2017-07-21T02:44:08.315Z,0
2017-07-21T02:45:09.745Z,0
2017-07-21T02:46:11.172Z,0
2017-07-21T02:47:12.597Z,0
2017-07-21T02:48:14.020Z,0
2017-07-21T02:49:15.471Z,0
2017-07-21T02:50:16.890Z,0
2017-07-21T02:51:18.318Z,0
2017-07-21T02:52:19.739Z,0
2017-07-21T02:53:21.163Z,0
2017-07-21T02:54:22.597Z,0
2017-07-21T02:55:24.019Z,0
2017-07-21T02:56:25.439Z,0
2017-07-21T02:57:26.860Z,0
2017-07-21T02:58:28.386Z,0
2017-07-21T02:59:29.804Z,4
2017-07-21T03:00:31.228Z,4
2017-07-21T03:01:32.738Z,4
2017-07-21T03:02:34.157Z,4
2017-07-21T03:03:35.588Z,0
2017-07-21T03:04:37.013Z,0
2017-07-21T03:05:38.540Z,0
2017-07-21T03:06:39.973Z,0
2017-07-21T03:07:41.400Z,0
2017-07-21T03:08:42.824Z,0
2017-07-21T03:09:44.245Z,4
2017-07-21T03:10:45.661Z,4
2017-07-21T03:11:47.098Z,4
2017-07-21T03:12:49.311Z,0
2017-07-21T03:13:50.743Z,0
2017-07-21T03:14:52.164Z,4
2017-07-21T03:15:53.586Z,4
2017-07-21T03:16:55.021Z,4
2017-07-21T03:17:56.450Z,4
2017-07-21T03:18:57.875Z,8
2017-07-21T03:19:59.291Z,4
2017-07-21T03:21:00.716Z,8
2017-07-21T03:22:02.137Z,8
2017-07-21T03:23:03.568Z,8
2017-07-21T03:24:04.991Z,8
2017-07-21T03:25:06.419Z,12
2017-07-21T03:26:07.840Z,12
2017-07-21T03:27:09.261Z,16
2017-07-21T03:28:10.700Z,16
2017-07-21T03:29:12.129Z,16
2017-07-21T03:30:13.556Z,20
2017-07-21T03:31:14.978Z,20
2017-07-21T03:32:16.400Z,24
2017-07-21T03:33:17.819Z,24
2017-07-21T03:34:19.252Z,28
2017-07-21T03:35:20.673Z,28
2017-07-21T03:36:22.100Z,32
2017-07-21T03:37:23.529Z,36
2017-07-21T03:38:24.948Z,36
2017-07-21T03:39:26.368Z,44
2017-07-21T03:40:27.788Z,44
2017-07-21T03:41:29.222Z,48
2017-07-21T03:42:30.647Z,48
2017-07-21T03:43:32.072Z,56
2017-07-21T03:44:33.501Z,56
2017-07-21T03:45:34.921Z,64
2017-07-21T03:46:36.348Z,64
2017-07-21T03:47:37.777Z,72
2017-07-21T03:48:39.195Z,76
2017-07-21T03:49:40.616Z,76
2017-07-21T03:50:42.038Z,84
2017-07-21T03:51:43.458Z,88
2017-07-21T03:52:44.941Z,92
2017-07-21T03:53:46.392Z,96
2017-07-21T03:54:47.801Z,104
2017-07-21T03:55:49.227Z,108
2017-07-21T03:56:50.660Z,112
2017-07-21T03:57:52.079Z,116
2017-07-21T03:58:53.511Z,124
2017-07-21T03:59:54.937Z,128
2017-07-21T04:00:56.373Z,132
2017-07-21T04:01:57.796Z,136
2017-07-21T04:02:59.222Z,140
2017-07-21T04:04:00.648Z,148
2017-07-21T04:05:02.066Z,152
2017-07-21T04:06:03.494Z,156
2017-07-21T04:07:04.916Z,164
2017-07-21T04:08:06.346Z,168
2017-07-21T04:09:07.772Z,180
2017-07-21T04:10:09.200Z,180
2017-07-21T04:11:10.628Z,184
2017-07-21T04:12:12.090Z,188
2017-07-21T04:13:13.511Z,196
2017-07-21T04:14:14.931Z,204
2017-07-21T04:15:16.361Z,208
2017-07-21T04:16:17.790Z,216
2017-07-21T04:17:19.213Z,216
2017-07-21T04:18:20.642Z,224
2017-07-21T04:19:22.070Z,228
2017-07-21T04:20:23.500Z,236
2017-07-21T04:21:24.922Z,240
2017-07-21T04:22:26.347Z,248
2017-07-21T04:23:27.775Z,256
2017-07-21T04:24:29.201Z,260
2017-07-21T04:25:30.625Z,264
2017-07-21T04:26:32.053Z,272
2017-07-21T04:27:33.483Z,276
2017-07-21T04:28:34.907Z,284
2017-07-21T04:29:36.329Z,284
2017-07-21T04:30:37.750Z,288
2017-07-21T04:31:39.203Z,300
2017-07-21T04:32:40.612Z,300
2017-07-21T04:33:42.036Z,304
2017-07-21T04:34:43.461Z,304
2017-07-21T04:35:44.885Z,308
2017-07-21T04:36:46.308Z,316
2017-07-21T04:37:47.737Z,328
2017-07-21T04:38:49.158Z,332
2017-07-21T04:39:50.578Z,332
2017-07-21T04:40:52.001Z,336
2017-07-21T04:41:53.426Z,344
2017-07-21T04:42:54.846Z,344
2017-07-21T04:43:56.278Z,348
2017-07-21T04:44:57.707Z,352
2017-07-21T04:46:00.458Z,356
2017-07-21T04:47:01.893Z,360
2017-07-21T04:48:03.322Z,360
2017-07-21T04:49:04.747Z,364
2017-07-21T04:50:06.169Z,372
2017-07-21T04:51:07.599Z,372
2017-07-21T04:52:09.025Z,376
2017-07-21T04:53:10.453Z,380
2017-07-21T04:54:11.887Z,388
2017-07-21T04:55:14.161Z,392
2017-07-21T04:56:15.602Z,392
2017-07-21T04:57:17.031Z,396
2017-07-21T04:58:18.453Z,404
2017-07-21T04:59:19.883Z,404
2017-07-21T05:00:21.321Z,408
2017-07-21T05:01:22.744Z,408
2017-07-21T05:02:24.169Z,412
2017-07-21T05:03:25.595Z,416
2017-07-21T05:04:27.597Z,420
2017-07-21T05:05:29.022Z,420
2017-07-21T05:06:30.449Z,420
2017-07-21T05:07:31.876Z,424
2017-07-21T05:08:33.327Z,424
2017-07-21T05:09:34.731Z,424
2017-07-21T05:10:36.163Z,428
2017-07-21T05:11:37.591Z,428
2017-07-21T05:12:39.020Z,428
2017-07-21T05:13:40.476Z,432
2017-07-21T05:14:41.914Z,432
2017-07-21T05:15:43.334Z,432
2017-07-21T05:16:44.763Z,432
2017-07-21T05:17:46.191Z,432
2017-07-21T05:18:47.620Z,432
2017-07-21T05:19:49.051Z,428
2017-07-21T05:20:50.476Z,428
2017-07-21T05:21:51.894Z,428
2017-07-21T05:22:53.322Z,432
2017-07-21T05:23:54.749Z,436
2017-07-21T05:24:56.182Z,436
2017-07-21T05:25:57.611Z,440
2017-07-21T05:26:59.040Z,436
2017-07-21T05:28:00.465Z,436
2017-07-21T05:29:01.892Z,436
2017-07-21T05:30:03.322Z,440
2017-07-21T05:31:04.755Z,440
2017-07-21T05:32:06.194Z,448
2017-07-21T05:33:07.608Z,452
2017-07-21T05:34:09.041Z,448
2017-07-21T05:35:10.470Z,448
2017-07-21T05:36:11.892Z,448
2017-07-21T05:37:13.323Z,448
2017-07-21T05:38:14.743Z,448
2017-07-21T05:39:16.166Z,448
2017-07-21T05:40:17.604Z,452
2017-07-21T05:41:19.025Z,452
2017-07-21T05:42:20.443Z,452
2017-07-21T05:43:21.878Z,452
2017-07-21T05:44:23.302Z,456
2017-07-21T05:45:24.734Z,452
2017-07-21T05:46:26.165Z,452
2017-07-21T05:47:27.594Z,452
2017-07-21T05:48:29.026Z,456
2017-07-21T05:49:30.524Z,452
2017-07-21T05:50:31.948Z,452
2017-07-21T05:51:33.386Z,452
2017-07-21T05:52:34.819Z,452
2017-07-21T05:53:36.253Z,452
2017-07-21T05:54:37.672Z,448
2017-07-21T05:55:39.110Z,452
2017-07-21T05:56:40.538Z,448
2017-07-21T05:57:41.965Z,448
2017-07-21T05:58:43.395Z,444
2017-07-21T05:59:44.825Z,320
2017-07-21T06:00:46.254Z,424
2017-07-21T06:01:47.682Z,444
2017-07-21T06:02:49.109Z,440
2017-07-21T06:03:50.537Z,440
2017-07-21T06:04:51.965Z,440
2017-07-21T06:05:53.391Z,444
2017-07-21T06:06:54.817Z,444
2017-07-21T06:07:56.256Z,444
2017-07-21T06:08:57.690Z,444
2017-07-21T06:09:59.115Z,444
2017-07-21T06:11:00.540Z,440
2017-07-21T06:12:02.493Z,440
2017-07-21T06:13:03.927Z,436
2017-07-21T06:14:05.354Z,436
2017-07-21T06:15:06.773Z,436
2017-07-21T06:16:08.216Z,440
2017-07-21T06:17:09.636Z,440
2017-07-21T06:18:11.063Z,440
2017-07-21T06:19:12.500Z,444
2017-07-21T06:20:13.932Z,440
2017-07-21T06:21:15.360Z,444
2017-07-21T06:22:16.784Z,444
2017-07-21T06:23:18.211Z,448
2017-07-21T06:24:19.625Z,448
2017-07-21T06:25:24.788Z,448
2017-07-21T06:26:26.577Z,448
2017-07-21T06:27:27.983Z,448
2017-07-21T06:28:29.405Z,452
2017-07-21T06:29:30.838Z,456
2017-07-21T06:30:32.267Z,456
2017-07-21T06:31:33.694Z,456
2017-07-21T06:32:35.121Z,460
2017-07-21T06:33:36.551Z,460
2017-07-21T06:34:37.977Z,460
2017-07-21T06:35:39.411Z,460
2017-07-21T06:36:40.842Z,464
2017-07-21T06:37:42.273Z,468
2017-07-21T06:38:43.763Z,468
2017-07-21T06:39:45.191Z,476
2017-07-21T06:40:46.650Z,476
2017-07-21T06:41:48.076Z,480
2017-07-21T06:42:49.500Z,480
2017-07-21T06:43:50.932Z,488
2017-07-21T06:44:52.419Z,492
2017-07-21T06:45:53.842Z,496
2017-07-21T06:46:55.272Z,500
2017-07-21T06:47:56.702Z,504
2017-07-21T06:48:58.137Z,508
2017-07-21T06:49:59.568Z,512
2017-07-21T06:51:00.999Z,516
2017-07-21T06:52:02.439Z,516
2017-07-21T06:53:03.873Z,520
2017-07-21T06:54:05.780Z,520
2017-07-21T06:55:07.202Z,524
2017-07-21T06:56:08.628Z,532
2017-07-21T06:57:10.055Z,528
2017-07-21T06:58:11.476Z,536
2017-07-21T06:59:12.906Z,540
2017-07-21T07:00:14.333Z,540
2017-07-21T07:01:15.765Z,544
2017-07-21T07:02:17.193Z,544
2017-07-21T07:03:18.618Z,548
2017-07-21T07:04:20.051Z,552
2017-07-21T07:05:21.475Z,560
2017-07-21T07:06:23.683Z,564
2017-07-21T07:07:25.116Z,556
2017-07-21T07:08:26.551Z,560
2017-07-21T07:09:27.975Z,564
2017-07-21T07:10:29.402Z,568
2017-07-21T07:11:30.846Z,580
2017-07-21T07:12:32.289Z,588
2017-07-21T07:13:33.722Z,596
2017-07-21T07:14:35.148Z,600
2017-07-21T07:15:36.582Z,608
2017-07-21T07:16:38.008Z,620
2017-07-21T07:17:39.437Z,620
2017-07-21T07:18:40.869Z,624
2017-07-21T07:19:42.299Z,624
2017-07-21T07:20:43.724Z,632
2017-07-21T07:21:45.165Z,632
2017-07-21T07:22:46.581Z,636
2017-07-21T07:23:48.005Z,644
2017-07-21T07:24:49.443Z,652
2017-07-21T07:25:50.888Z,660
2017-07-21T07:26:52.313Z,660
2017-07-21T07:27:53.812Z,664
2017-07-21T07:28:55.243Z,672
2017-07-21T07:29:56.678Z,676
2017-07-21T07:30:58.110Z,676
2017-07-21T07:31:59.540Z,676
2017-07-21T07:33:00.976Z,676
2017-07-21T07:34:02.398Z,680
2017-07-21T07:35:03.835Z,684
2017-07-21T07:36:05.258Z,688
2017-07-21T07:37:06.709Z,696
2017-07-21T07:38:08.143Z,700
2017-07-21T07:39:09.576Z,704
2017-07-21T07:40:11.004Z,708
2017-07-21T07:41:12.435Z,704
2017-07-21T07:42:13.861Z,700
2017-07-21T07:43:15.337Z,704
2017-07-21T07:44:16.770Z,700
2017-07-21T07:45:18.205Z,708
2017-07-21T07:46:19.629Z,716
2017-07-21T07:47:21.065Z,720
2017-07-21T07:48:22.505Z,724
2017-07-21T07:49:24.895Z,736
2017-07-21T07:50:26.324Z,744
2017-07-21T07:51:27.762Z,752
2017-07-21T07:52:29.192Z,748
2017-07-21T07:53:30.628Z,752
2017-07-21T07:54:32.053Z,756
2017-07-21T07:55:33.474Z,760
2017-07-21T07:56:34.905Z,760
2017-07-21T07:57:36.349Z,760
2017-07-21T07:58:37.768Z,760
2017-07-21T07:59:39.206Z,760
2017-07-21T08:00:40.638Z,760
2017-07-21T08:01:42.069Z,764
2017-07-21T08:02:43.499Z,760
2017-07-21T08:03:44.937Z,756
2017-07-21T08:04:46.372Z,764
2017-07-21T08:05:47.799Z,764
2017-07-21T08:06:49.231Z,776
2017-07-21T08:07:50.668Z,780
2017-07-21T08:08:53.038Z,784
2017-07-21T08:09:54.467Z,788
2017-07-21T08:10:55.902Z,788
2017-07-21T08:11:57.332Z,792
2017-07-21T08:12:58.763Z,780
2017-07-21T08:14:00.206Z,784
2017-07-21T08:15:01.642Z,784
2017-07-21T08:16:03.073Z,784
2017-07-21T08:17:04.515Z,784
2017-07-21T08:18:05.938Z,792
2017-07-21T08:19:07.370Z,780
2017-07-21T08:20:08.800Z,788
2017-07-21T08:21:10.232Z,792
2017-07-21T08:22:11.661Z,796
2017-07-21T08:23:13.089Z,796
2017-07-21T08:24:14.522Z,780
2017-07-21T08:25:15.951Z,812
2017-07-21T08:26:17.406Z,812
2017-07-21T08:27:18.812Z,812
2017-07-21T08:28:20.246Z,824
2017-07-21T08:29:21.694Z,824
2017-07-21T08:30:23.122Z,840
2017-07-21T08:31:24.579Z,844
2017-07-21T08:32:26.014Z,856
2017-07-21T08:33:27.993Z,868
2017-07-21T08:34:29.426Z,876
2017-07-21T08:35:30.851Z,876
2017-07-21T08:36:32.284Z,880
2017-07-21T08:37:33.711Z,872
2017-07-21T08:38:35.148Z,872
2017-07-21T08:39:36.574Z,884
2017-07-21T08:40:38.020Z,892
2017-07-21T08:41:39.442Z,896
2017-07-21T08:42:40.872Z,900
2017-07-21T08:43:42.304Z,904
2017-07-21T08:44:43.731Z,888
2017-07-21T08:45:45.163Z,908
2017-07-21T08:46:46.604Z,912
2017-07-21T08:47:48.038Z,924
2017-07-21T08:48:49.474Z,932
2017-07-21T08:49:50.900Z,928
2017-07-21T08:50:52.335Z,940
2017-07-21T08:51:53.762Z,928
2017-07-21T08:52:55.196Z,944
2017-07-21T08:53:56.628Z,944
2017-07-21T08:54:58.053Z,948
2017-07-21T08:55:59.495Z,948
2017-07-21T08:57:00.926Z,948
2017-07-21T08:58:02.362Z,952
2017-07-21T08:59:03.794Z,960
2017-07-21T09:00:05.239Z,960
2017-07-21T09:01:06.660Z,964
2017-07-21T09:02:08.097Z,952
2017-07-21T09:03:09.529Z,968
2017-07-21T09:04:10.956Z,972
2017-07-21T09:05:12.391Z,976
2017-07-21T09:06:13.823Z,972
2017-07-21T09:07:15.253Z,976
2017-07-21T09:08:16.682Z,988
2017-07-21T09:09:18.115Z,988
2017-07-21T09:10:19.545Z,988
2017-07-21T09:11:20.968Z,992
2017-07-21T09:12:22.395Z,1000
2017-07-21T09:13:23.839Z,1000
2017-07-21T09:14:25.271Z,996
2017-07-21T09:15:26.714Z,1004
2017-07-21T09:16:28.146Z,1004
2017-07-21T09:17:29.572Z,1008
2017-07-21T09:18:31.844Z,1004
2017-07-21T09:19:33.287Z,1012
2017-07-21T09:20:34.718Z,1020
2017-07-21T09:21:36.146Z,1024
2017-07-21T09:22:37.581Z,1024
2017-07-21T09:23:39.012Z,1032
2017-07-21T09:24:40.445Z,1040
2017-07-21T09:25:41.877Z,1028
2017-07-21T09:26:43.312Z,1052
2017-07-21T09:27:44.739Z,1052
2017-07-21T09:28:46.169Z,1064
2017-07-21T09:29:47.607Z,1084
2017-07-21T09:30:49.038Z,1100
2017-07-21T09:31:50.469Z,1080
2017-07-21T09:32:51.904Z,1088
2017-07-21T09:33:53.335Z,1096
2017-07-21T09:34:54.763Z,1088
2017-07-21T09:35:56.193Z,1096
2017-07-21T09:36:57.625Z,1108
2017-07-21T09:37:59.059Z,1120
2017-07-21T09:39:00.495Z,1136
2017-07-21T09:40:01.925Z,1144
2017-07-21T09:41:03.364Z,1148
2017-07-21T09:42:04.805Z,1168
2017-07-21T09:43:06.238Z,1192
2017-07-21T09:44:07.671Z,1204
2017-07-21T09:45:09.096Z,1172
2017-07-21T09:46:10.530Z,1200
2017-07-21T09:47:11.964Z,1240
2017-07-21T09:48:13.395Z,1252
2017-07-21T09:49:14.827Z,1260
2017-07-21T09:50:16.254Z,1276
2017-07-21T09:51:17.696Z,1304
2017-07-21T09:52:19.125Z,1356
2017-07-21T09:53:20.557Z,1420
2017-07-21T09:54:21.985Z,1484
2017-07-21T09:55:23.423Z,1456
2017-07-21T09:56:24.877Z,1392
2017-07-21T09:57:26.309Z,1320
2017-07-21T09:58:27.739Z,964
2017-07-21T09:59:29.174Z,1268
2017-07-21T10:00:30.607Z,1316
2017-07-21T10:01:32.041Z,872
2017-07-21T10:02:33.472Z,900
2017-07-21T10:03:34.900Z,1384
2017-07-21T10:04:36.332Z,1396
2017-07-21T10:05:37.765Z,1032
2017-07-21T10:06:39.195Z,916
2017-07-21T10:07:40.617Z,944
2017-07-21T10:08:42.877Z,1480
2017-07-21T10:09:44.309Z,1448
2017-07-21T10:10:45.747Z,1440
2017-07-21T10:11:47.175Z,1424
2017-07-21T10:12:48.606Z,1448
2017-07-21T10:13:50.042Z,1460
2017-07-21T10:14:51.476Z,1468
2017-07-21T10:15:52.916Z,1492
2017-07-21T10:16:54.344Z,1556
2017-07-21T10:17:55.781Z,1608
2017-07-21T10:18:57.222Z,1672
2017-07-21T10:19:58.667Z,1740
2017-07-21T10:21:00.102Z,1868
2017-07-21T10:22:01.537Z,1960
2017-07-21T10:23:03.021Z,2112
2017-07-21T10:24:04.452Z,2196
2017-07-21T10:25:05.884Z,2192
2017-07-21T10:26:07.318Z,2332
2017-07-21T10:27:08.747Z,2408
2017-07-21T10:28:10.177Z,2300
2017-07-21T10:29:11.604Z,2272
2017-07-21T10:30:13.047Z,2256
2017-07-21T10:31:14.477Z,2200
2017-07-21T10:32:15.910Z,2224
2017-07-21T10:33:17.344Z,2264
2017-07-21T10:34:18.835Z,2324
2017-07-21T10:35:20.265Z,2368
2017-07-21T10:36:21.706Z,2260
2017-07-21T10:37:23.140Z,2444
2017-07-21T10:38:24.574Z,2496
2017-07-21T10:39:26.007Z,2464
2017-07-21T10:40:27.445Z,2500
2017-07-21T10:41:28.887Z,2524
2017-07-21T10:42:30.324Z,2596
2017-07-21T10:43:31.753Z,2620
2017-07-21T10:44:33.184Z,2536
2017-07-21T10:45:34.618Z,2448
2017-07-21T10:46:36.057Z,2636
2017-07-21T10:47:37.488Z,2680
2017-07-21T10:48:38.919Z,2028
2017-07-21T10:49:40.353Z,2096
2017-07-21T10:50:41.793Z,2780
2017-07-21T10:51:43.230Z,2656
2017-07-21T10:52:44.661Z,2604
2017-07-21T10:53:46.096Z,2044
2017-07-21T10:54:47.526Z,1960
2017-07-21T10:55:48.987Z,2856
2017-07-21T10:56:50.424Z,2128
2017-07-21T10:57:51.862Z,2676
2017-07-21T10:58:53.294Z,2748
2017-07-21T10:59:54.730Z,2796
2017-07-21T11:00:56.165Z,2904
2017-07-21T11:01:57.614Z,2896
2017-07-21T11:02:59.068Z,2864
2017-07-21T11:04:00.502Z,3016
2017-07-21T11:05:01.939Z,3068
2017-07-21T11:06:03.378Z,2180
2017-07-21T11:07:04.810Z,3160
2017-07-21T11:08:06.242Z,2320
2017-07-21T11:09:07.682Z,3396
2017-07-21T11:10:09.122Z,2756
2017-07-21T11:11:10.564Z,2484
2017-07-21T11:12:12.004Z,2540
2017-07-21T11:13:13.444Z,3132
2017-07-21T11:14:14.896Z,2192
2017-07-21T11:15:16.328Z,1980
2017-07-21T11:16:17.765Z,2020
2017-07-21T11:17:19.211Z,2360
2017-07-21T11:18:20.651Z,1892
2017-07-21T11:19:22.093Z,1408
2017-07-21T11:20:23.536Z,2432
2017-07-21T11:21:24.965Z,2288
2017-07-21T11:22:26.400Z,2384
2017-07-21T11:23:28.459Z,3772
2017-07-21T11:24:29.896Z,4028
2017-07-21T11:25:31.557Z,3904
2017-07-21T11:26:32.872Z,3672
2017-07-21T11:27:34.333Z,3696
2017-07-21T11:28:35.748Z,3688
2017-07-21T11:29:37.177Z,3548
2017-07-21T11:30:38.626Z,3520
2017-07-21T11:31:40.067Z,3636
2017-07-21T11:32:41.505Z,3732
2017-07-21T11:33:42.940Z,2896
2017-07-21T11:34:44.385Z,2712
2017-07-21T11:35:45.817Z,2556
2017-07-21T11:36:47.261Z,2240
2017-07-21T11:37:48.699Z,1924
2017-07-21T11:38:50.130Z,1788
2017-07-21T11:39:51.559Z,2140
2017-07-21T11:40:53.005Z,2112
2017-07-21T11:41:54.442Z,2052
2017-07-21T11:42:55.881Z,2336
2017-07-21T11:43:57.328Z,2224
2017-07-21T11:44:58.763Z,2248
2017-07-21T11:46:00.204Z,2204
2017-07-21T11:47:01.636Z,3256
2017-07-21T11:48:03.079Z,2524
2017-07-21T11:49:04.529Z,3168
2017-07-21T11:50:05.947Z,3340
2017-07-21T11:51:07.381Z,3156
2017-07-21T11:52:08.815Z,1768
2017-07-21T11:53:10.251Z,2740
2017-07-21T11:54:11.685Z,1828
2017-07-21T11:55:13.116Z,1744
2017-07-21T11:56:14.563Z,2696
2017-07-21T11:57:15.994Z,3768
2017-07-21T11:58:17.422Z,2468
2017-07-21T11:59:18.861Z,3716
2017-07-21T12:00:20.302Z,4096
2017-07-21T12:01:21.733Z,3976
2017-07-21T12:02:23.167Z,3904
2017-07-21T12:03:24.600Z,2952
2017-07-21T12:04:26.055Z,3736
2017-07-21T12:05:27.493Z,2416
2017-07-21T12:06:28.938Z,2664
2017-07-21T12:07:31.146Z,3240
2017-07-21T12:08:32.597Z,2904
2017-07-21T12:09:34.045Z,2660
2017-07-21T12:10:35.484Z,2648
2017-07-21T12:11:36.926Z,2944
2017-07-21T12:12:38.366Z,2904
2017-07-21T12:13:39.803Z,2960
2017-07-21T12:14:41.230Z,3028
2017-07-21T12:15:42.683Z,4316
2017-07-21T12:16:44.129Z,3628
2017-07-21T12:17:45.568Z,4440
2017-07-21T12:18:47.044Z,4132
2017-07-21T12:19:48.472Z,4060
2017-07-21T12:20:49.912Z,3976
2017-07-21T12:21:51.353Z,4152
2017-07-21T12:22:52.866Z,2944
2017-07-21T12:23:54.297Z,4204
2017-07-21T12:24:55.737Z,4392
2017-07-21T12:25:57.180Z,4456
2017-07-21T12:26:58.662Z,4512
2017-07-21T12:28:00.097Z,4448
2017-07-21T12:29:01.545Z,4148
2017-07-21T12:30:02.986Z,4136
2017-07-21T12:31:04.429Z,4120
2017-07-21T12:32:05.869Z,4220
2017-07-21T12:33:07.314Z,4288
2017-07-21T12:34:08.798Z,4332
2017-07-21T12:35:10.241Z,4420
2017-07-21T12:36:11.673Z,4220
2017-07-21T12:37:13.117Z,4024
2017-07-21T12:38:14.556Z,3720
2017-07-21T12:39:15.995Z,3564
2017-07-21T12:40:17.437Z,3560
2017-07-21T12:41:18.886Z,3632
2017-07-21T12:42:20.330Z,3676
2017-07-21T12:43:21.765Z,3780
2017-07-21T12:44:23.220Z,3992
2017-07-21T12:45:24.655Z,4016
2017-07-21T12:46:26.102Z,3852
2017-07-21T12:47:27.549Z,3808
2017-07-21T12:48:28.995Z,3880
2017-07-21T12:49:30.433Z,3708
2017-07-21T12:50:31.872Z,3232
2017-07-21T12:51:33.312Z,3908
2017-07-21T12:52:34.793Z,3888
2017-07-21T12:53:36.228Z,3808
2017-07-21T12:54:37.665Z,3688
2017-07-21T12:55:39.106Z,3604
2017-07-21T12:56:40.542Z,3528
2017-07-21T12:57:41.978Z,3552
2017-07-21T12:58:43.412Z,3732
2017-07-21T12:59:44.854Z,3964
2017-07-21T13:00:46.290Z,3904
2017-07-21T13:01:47.728Z,3388
2017-07-21T13:02:49.167Z,3308
2017-07-21T13:03:50.605Z,3380
2017-07-21T13:04:52.046Z,3576
2017-07-21T13:05:53.485Z,3888
2017-07-21T13:06:55.007Z,3812
2017-07-21T13:07:56.453Z,3508
2017-07-21T13:08:57.888Z,3764
2017-07-21T13:09:59.321Z,3948
2017-07-21T13:11:00.799Z,3808
2017-07-21T13:12:02.233Z,3524
2017-07-21T13:13:03.683Z,3200
2017-07-21T13:14:05.128Z,3016
2017-07-21T13:15:06.564Z,2820
2017-07-21T13:16:07.999Z,2776
2017-07-21T13:17:09.439Z,2768
2017-07-21T13:18:10.892Z,2688
2017-07-21T13:19:12.335Z,2720
2017-07-21T13:20:13.768Z,2700
2017-07-21T13:21:15.213Z,2676
2017-07-21T13:22:16.665Z,2644
2017-07-21T13:23:18.098Z,2004
2017-07-21T13:24:19.540Z,2324
2017-07-21T13:25:20.975Z,2280
2017-07-21T13:26:22.414Z,2304
2017-07-21T13:27:23.852Z,2356
2017-07-21T13:28:25.295Z,2572
2017-07-21T13:29:26.726Z,2740
2017-07-21T13:30:28.165Z,2896
2017-07-21T13:31:29.606Z,2984
2017-07-21T13:32:31.066Z,2928
2017-07-21T13:33:32.509Z,2788
2017-07-21T13:34:33.946Z,2836
2017-07-21T13:35:35.380Z,2704
2017-07-21T13:36:36.884Z,2736
2017-07-21T13:37:38.336Z,2572
2017-07-21T13:38:39.775Z,2492
2017-07-21T13:39:41.215Z,2864
2017-07-21T13:40:42.656Z,2944
2017-07-21T13:41:44.090Z,2904
2017-07-21T13:42:45.530Z,2428
2017-07-21T13:43:46.970Z,1956
2017-07-21T13:44:48.408Z,2352
2017-07-21T13:45:49.846Z,2400
2017-07-21T13:46:51.289Z,2856
2017-07-21T13:47:52.729Z,2740
2017-07-21T13:48:54.168Z,2432
2017-07-21T13:49:55.602Z,2500
2017-07-21T13:50:57.047Z,2552
2017-07-21T13:51:58.527Z,2612
2017-07-21T13:52:59.966Z,2492
2017-07-21T13:54:01.403Z,3372
2017-07-21T13:55:02.838Z,21568
2017-07-21T13:56:04.280Z,10708
2017-07-21T13:57:05.732Z,9020
2017-07-21T13:58:07.190Z,7492
2017-07-21T13:59:08.637Z,58080
2017-07-21T14:00:10.075Z,4140
2017-07-21T14:01:11.550Z,27072
2017-07-21T14:02:12.988Z,63040
2017-07-21T14:03:14.438Z,48640
2017-07-21T14:04:15.883Z,37664
2017-07-21T14:05:17.318Z,4092
2017-07-21T14:06:18.798Z,2144
2017-07-21T14:07:20.240Z,2068
2017-07-21T14:08:21.690Z,2184
2017-07-21T14:09:23.124Z,2400
2017-07-21T14:10:24.563Z,2552